sensor_id;sensor_type;location;lat;lon;timestamp;pressure;altitude;pressure_sealevel;temperature;humidity
2785;BME280;57944;48.722;9.316;2023-02-26T00:02:02;97527.94;;;-2.08;100.00
2785;BME280;57944;48.722;9.316;2023-02-26T00:04:32;97522.69;;;-2.05;100.00
2785;BME280;57944;48.722;9.316;2023-02-26T00:07:03;97528.97;;;-2.10;100.00
2785;BME280;57944;48.722;9.316;2023-02-26T00:09:33;97534.91;;;-2.02;100.00
2785;BME280;57944;48.722;9.316;2023-02-26T00:12:04;97537.16;;;-1.98;100.00
2785;BME280;57944;48.722;9.316;2023-02-26T00:14:35;97534.38;;;-2.05;100.00
2785;BME280;57944;48.722;9.316;2023-02-26T00:17:41;97535.66;;;-2.11;100.00
2785;BME280;57944;48.722;9.316;2023-02-26T00:20:13;97535.25;;;-2.16;100.00
2785;BME280;57944;48.722;9.316;2023-02-26T00:22:45;97536.81;;;-2.15;100.00
2785;BME280;57944;48.722;9.316;2023-02-26T00:25:15;97541.56;;;-2.12;100.00
2785;BME280;57944;48.722;9.316;2023-02-26T00:27:46;97541.75;;;-2.25;100.00
2785;BME280;57944;48.722;9.316;2023-02-26T00:30:18;97536.09;;;-2.27;100.00
2785;BME280;57944;48.722;9.316;2023-02-26T00:32:52;97540.19;;;-2.26;100.00
2785;BME280;57944;48.722;9.316;2023-02-26T00:35:24;97547.19;;;-2.19;100.00
2785;BME280;57944;48.722;9.316;2023-02-26T00:38:00;97547.38;;;-2.11;100.00
2785;BME280;57944;48.722;9.316;2023-02-26T00:40:39;97551.06;;;-2.06;100.00
2785;BME280;57944;48.722;9.316;2023-02-26T00:43:15;97545.75;;;-2.12;100.00
2785;BME280;57944;48.722;9.316;2023-02-26T00:45:55;97544.31;;;-2.15;100.00
2785;BME280;57944;48.722;9.316;2023-02-26T00:48:52;97552.19;;;-2.19;100.00
2785;BME280;57944;48.722;9.316;2023-02-26T00:51:32;97551.75;;;-2.25;100.00
2785;BME280;57944;48.722;9.316;2023-02-26T00:54:09;97558.38;;;-2.14;100.00
2785;BME280;57944;48.722;9.316;2023-02-26T00:56:42;97560.94;;;-2.25;100.00
2785;BME280;57944;48.722;9.316;2023-02-26T00:59:12;97554.59;;;-2.29;100.00
2785;BME280;57944;48.722;9.316;2023-02-26T01:01:42;97547.00;;;-2.28;100.00
2785;BME280;57944;48.722;9.316;2023-02-26T01:04:18;97551.25;;;-2.18;100.00
2785;BME280;57944;48.722;9.316;2023-02-26T01:06:53;97549.69;;;-2.19;100.00
2785;BME280;57944;48.722;9.316;2023-02-26T01:09:26;97552.28;;;-2.21;100.00
2785;BME280;57944;48.722;9.316;2023-02-26T01:12:00;97552.72;;;-2.16;100.00
2785;BME280;57944;48.722;9.316;2023-02-26T01:14:32;97552.59;;;-2.14;100.00
2785;BME280;57944;48.722;9.316;2023-02-26T01:17:14;97552.47;;;-2.13;100.00
2785;BME280;57944;48.722;9.316;2023-02-26T01:19:53;97547.53;;;-2.24;100.00
2785;BME280;57944;48.722;9.316;2023-02-26T01:22:33;97547.16;;;-2.40;100.00
2785;BME280;57944;48.722;9.316;2023-02-26T01:25:09;97548.44;;;-2.46;100.00
2785;BME280;57944;48.722;9.316;2023-02-26T01:27:40;97549.41;;;-2.58;100.00
2785;BME280;57944;48.722;9.316;2023-02-26T01:30:12;97545.22;;;-2.58;100.00
2785;BME280;57944;48.722;9.316;2023-02-26T01:32:48;97552.69;;;-2.58;100.00
2785;BME280;57944;48.722;9.316;2023-02-26T01:35:40;97545.69;;;-2.64;100.00
2785;BME280;57944;48.722;9.316;2023-02-26T01:38:22;97549.47;;;-2.70;100.00
2785;BME280;57944;48.722;9.316;2023-02-26T01:41:23;97548.03;;;-2.83;100.00
2785;BME280;57944;48.722;9.316;2023-02-26T01:44:04;97557.91;;;-2.93;100.00
2785;BME280;57944;48.722;9.316;2023-02-26T01:47:11;97550.09;;;-3.00;100.00
2785;BME280;57944;48.722;9.316;2023-02-26T01:49:45;97553.06;;;-3.06;100.00
2785;BME280;57944;48.722;9.316;2023-02-26T01:55:33;97561.34;;;-3.17;100.00
2785;BME280;57944;48.722;9.316;2023-02-26T01:58:03;97563.50;;;-3.23;100.00
2785;BME280;57944;48.722;9.316;2023-02-26T02:00:33;97562.25;;;-3.29;100.00
2785;BME280;57944;48.722;9.316;2023-02-26T02:03:04;97560.47;;;-3.38;100.00
2785;BME280;57944;48.722;9.316;2023-02-26T02:05:47;97560.38;;;-3.37;100.00
2785;BME280;57944;48.722;9.316;2023-02-26T02:08:20;97570.56;;;-3.28;100.00
2785;BME280;57944;48.722;9.316;2023-02-26T02:10:53;97565.44;;;-3.38;100.00
2785;BME280;57944;48.722;9.316;2023-02-26T02:13:39;97570.09;;;-3.33;100.00
2785;BME280;57944;48.722;9.316;2023-02-26T02:16:24;97573.72;;;-3.49;100.00
2785;BME280;57944;48.722;9.316;2023-02-26T02:19:12;97562.97;;;-3.61;100.00
2785;BME280;57944;48.722;9.316;2023-02-26T02:22:18;97569.66;;;-3.61;100.00
2785;BME280;57944;48.722;9.316;2023-02-26T02:25:19;97575.50;;;-3.73;100.00
2785;BME280;57944;48.722;9.316;2023-02-26T02:28:09;97577.44;;;-3.77;100.00
2785;BME280;57944;48.722;9.316;2023-02-26T02:31:00;97576.19;;;-3.71;100.00
2785;BME280;57944;48.722;9.316;2023-02-26T02:33:43;97583.44;;;-3.68;100.00
2785;BME280;57944;48.722;9.316;2023-02-26T02:36:25;97580.63;;;-3.75;100.00
2785;BME280;57944;48.722;9.316;2023-02-26T02:39:02;97582.78;;;-3.82;100.00
2785;BME280;57944;48.722;9.316;2023-02-26T02:41:44;97585.69;;;-3.88;100.00
2785;BME280;57944;48.722;9.316;2023-02-26T02:44:20;97586.59;;;-3.89;100.00
2785;BME280;57944;48.722;9.316;2023-02-26T02:46:57;97584.88;;;-3.99;100.00
2785;BME280;57944;48.722;9.316;2023-02-26T02:49:38;97585.88;;;-4.02;100.00
2785;BME280;57944;48.722;9.316;2023-02-26T02:52:18;97587.91;;;-4.07;100.00
2785;BME280;57944;48.722;9.316;2023-02-26T02:54:58;97588.13;;;-4.10;100.00
2785;BME280;57944;48.722;9.316;2023-02-26T02:57:36;97599.56;;;-4.08;100.00
2785;BME280;57944;48.722;9.316;2023-02-26T03:00:12;97596.16;;;-4.18;100.00
2785;BME280;57944;48.722;9.316;2023-02-26T03:02:52;97600.31;;;-4.18;100.00
2785;BME280;57944;48.722;9.316;2023-02-26T03:05:25;97598.75;;;-4.19;100.00
2785;BME280;57944;48.722;9.316;2023-02-26T03:07:59;97597.06;;;-4.08;100.00
2785;BME280;57944;48.722;9.316;2023-02-26T03:10:32;97603.06;;;-4.10;100.00
2785;BME280;57944;48.722;9.316;2023-02-26T03:13:04;97601.94;;;-4.17;100.00
2785;BME280;57944;48.722;9.316;2023-02-26T03:15:43;97611.16;;;-4.31;100.00
2785;BME280;57944;48.722;9.316;2023-02-26T03:18:33;97606.81;;;-4.40;100.00
2785;BME280;57944;48.722;9.316;2023-02-26T03:21:25;97604.88;;;-4.47;100.00
2785;BME280;57944;48.722;9.316;2023-02-26T03:24:05;97612.75;;;-4.54;100.00
2785;BME280;57944;48.722;9.316;2023-02-26T03:26:43;97618.03;;;-4.58;100.00
2785;BME280;57944;48.722;9.316;2023-02-26T03:29:27;97616.47;;;-4.59;100.00
2785;BME280;57944;48.722;9.316;2023-02-26T03:32:06;97617.19;;;-4.70;100.00
2785;BME280;57944;48.722;9.316;2023-02-26T03:34:46;97623.00;;;-4.58;100.00
2785;BME280;57944;48.722;9.316;2023-02-26T03:37:24;97619.03;;;-4.37;100.00
2785;BME280;57944;48.722;9.316;2023-02-26T03:40:02;97619.31;;;-4.29;100.00
2785;BME280;57944;48.722;9.316;2023-02-26T03:42:40;97627.66;;;-4.30;100.00
2785;BME280;57944;48.722;9.316;2023-02-26T03:45:17;97621.31;;;-4.34;100.00
2785;BME280;57944;48.722;9.316;2023-02-26T03:47:53;97620.78;;;-4.50;100.00
2785;BME280;57944;48.722;9.316;2023-02-26T03:50:32;97634.31;;;-4.54;100.00
2785;BME280;57944;48.722;9.316;2023-02-26T03:53:24;97627.78;;;-4.55;100.00
2785;BME280;57944;48.722;9.316;2023-02-26T03:56:15;97627.41;;;-4.62;100.00
2785;BME280;57944;48.722;9.316;2023-02-26T03:59:05;97634.69;;;-4.72;100.00
2785;BME280;57944;48.722;9.316;2023-02-26T04:01:50;97630.44;;;-4.82;100.00
2785;BME280;57944;48.722;9.316;2023-02-26T04:04:30;97638.81;;;-4.96;100.00
2785;BME280;57944;48.722;9.316;2023-02-26T04:07:04;97640.03;;;-5.02;100.00
2785;BME280;57944;48.722;9.316;2023-02-26T04:09:34;97644.78;;;-4.99;100.00
2785;BME280;57944;48.722;9.316;2023-02-26T04:12:04;97635.56;;;-4.97;100.00
2785;BME280;57944;48.722;9.316;2023-02-26T04:14:37;97645.63;;;-4.98;100.00
2785;BME280;57944;48.722;9.316;2023-02-26T04:17:07;97644.63;;;-5.08;100.00
2785;BME280;57944;48.722;9.316;2023-02-26T04:19:37;97644.72;;;-5.10;100.00
2785;BME280;57944;48.722;9.316;2023-02-26T04:22:10;97640.63;;;-4.98;100.00
2785;BME280;57944;48.722;9.316;2023-02-26T04:24:40;97647.19;;;-5.10;100.00
2785;BME280;57944;48.722;9.316;2023-02-26T04:27:12;97644.34;;;-5.17;100.00
2785;BME280;57944;48.722;9.316;2023-02-26T04:29:42;97645.44;;;-5.21;100.00
2785;BME280;57944;48.722;9.316;2023-02-26T04:32:12;97655.19;;;-5.18;100.00
2785;BME280;57944;48.722;9.316;2023-02-26T04:34:42;97649.81;;;-5.11;100.00
2785;BME280;57944;48.722;9.316;2023-02-26T04:37:18;97654.78;;;-5.11;100.00
2785;BME280;57944;48.722;9.316;2023-02-26T04:39:48;97657.16;;;-5.23;100.00
2785;BME280;57944;48.722;9.316;2023-02-26T04:42:18;97659.25;;;-5.17;100.00
2785;BME280;57944;48.722;9.316;2023-02-26T04:44:48;97660.66;;;-5.12;100.00
2785;BME280;57944;48.722;9.316;2023-02-26T04:47:19;97667.91;;;-5.22;100.00
2785;BME280;57944;48.722;9.316;2023-02-26T04:49:49;97659.84;;;-5.26;100.00
2785;BME280;57944;48.722;9.316;2023-02-26T04:52:21;97663.91;;;-5.25;100.00
2785;BME280;57944;48.722;9.316;2023-02-26T04:54:52;97660.66;;;-5.25;100.00
2785;BME280;57944;48.722;9.316;2023-02-26T04:57:22;97671.88;;;-5.20;100.00
2785;BME280;57944;48.722;9.316;2023-02-26T04:59:51;97674.44;;;-5.21;100.00
2785;BME280;57944;48.722;9.316;2023-02-26T05:02:26;97675.47;;;-5.24;100.00
2785;BME280;57944;48.722;9.316;2023-02-26T05:04:56;97672.28;;;-5.26;100.00
2785;BME280;57944;48.722;9.316;2023-02-26T05:07:28;97678.31;;;-5.30;100.00
2785;BME280;57944;48.722;9.316;2023-02-26T05:09:58;97674.47;;;-5.34;100.00
2785;BME280;57944;48.722;9.316;2023-02-26T05:12:28;97679.63;;;-5.37;100.00
2785;BME280;57944;48.722;9.316;2023-02-26T05:14:59;97688.94;;;-5.41;100.00
2785;BME280;57944;48.722;9.316;2023-02-26T05:17:30;97693.91;;;-5.41;100.00
2785;BME280;57944;48.722;9.316;2023-02-26T05:20:00;97689.06;;;-5.42;100.00
2785;BME280;57944;48.722;9.316;2023-02-26T05:22:33;97696.59;;;-5.44;100.00
2785;BME280;57944;48.722;9.316;2023-02-26T05:25:05;97703.25;;;-5.44;100.00
2785;BME280;57944;48.722;9.316;2023-02-26T05:27:35;97698.88;;;-5.41;100.00
2785;BME280;57944;48.722;9.316;2023-02-26T05:30:09;97712.59;;;-5.48;100.00
2785;BME280;57944;48.722;9.316;2023-02-26T05:32:40;97701.06;;;-5.62;100.00
2785;BME280;57944;48.722;9.316;2023-02-26T05:35:11;97710.09;;;-5.61;100.00
2785;BME280;57944;48.722;9.316;2023-02-26T05:37:43;97714.84;;;-5.57;100.00
2785;BME280;57944;48.722;9.316;2023-02-26T05:40:13;97717.13;;;-5.54;100.00
2785;BME280;57944;48.722;9.316;2023-02-26T05:42:43;97720.91;;;-5.62;100.00
2785;BME280;57944;48.722;9.316;2023-02-26T05:45:13;97729.34;;;-5.64;100.00
2785;BME280;57944;48.722;9.316;2023-02-26T05:47:43;97731.03;;;-5.65;100.00
2785;BME280;57944;48.722;9.316;2023-02-26T05:50:13;97736.88;;;-5.66;100.00
2785;BME280;57944;48.722;9.316;2023-02-26T05:52:46;97737.59;;;-5.64;100.00
2785;BME280;57944;48.722;9.316;2023-02-26T05:55:17;97738.38;;;-5.63;100.00
2785;BME280;57944;48.722;9.316;2023-02-26T05:57:47;97738.19;;;-5.60;100.00
2785;BME280;57944;48.722;9.316;2023-02-26T06:00:18;97735.63;;;-5.58;100.00
2785;BME280;57944;48.722;9.316;2023-02-26T06:02:48;97739.56;;;-5.69;100.00
2785;BME280;57944;48.722;9.316;2023-02-26T06:05:19;97746.41;;;-5.72;100.00
2785;BME280;57944;48.722;9.316;2023-02-26T06:07:51;97750.91;;;-5.65;100.00
2785;BME280;57944;48.722;9.316;2023-02-26T06:10:21;97754.03;;;-5.75;100.00
2785;BME280;57944;48.722;9.316;2023-02-26T06:12:51;97758.22;;;-5.76;100.00
2785;BME280;57944;48.722;9.316;2023-02-26T06:15:21;97755.25;;;-5.68;100.00
2785;BME280;57944;48.722;9.316;2023-02-26T06:17:51;97760.63;;;-5.62;100.00
2785;BME280;57944;48.722;9.316;2023-02-26T06:20:21;97764.03;;;-5.63;100.00
2785;BME280;57944;48.722;9.316;2023-02-26T06:22:53;97767.97;;;-5.60;100.00
2785;BME280;57944;48.722;9.316;2023-02-26T06:25:23;97769.00;;;-5.50;100.00
2785;BME280;57944;48.722;9.316;2023-02-26T06:27:53;97776.44;;;-5.50;100.00
2785;BME280;57944;48.722;9.316;2023-02-26T06:30:23;97786.97;;;-5.46;100.00
2785;BME280;57944;48.722;9.316;2023-02-26T06:32:53;97787.78;;;-5.46;100.00
2785;BME280;57944;48.722;9.316;2023-02-26T06:35:24;97789.56;;;-5.35;100.00
2785;BME280;57944;48.722;9.316;2023-02-26T06:37:57;97795.88;;;-5.17;100.00
2785;BME280;57944;48.722;9.316;2023-02-26T06:40:27;97797.25;;;-5.00;100.00
2785;BME280;57944;48.722;9.316;2023-02-26T06:42:57;97800.84;;;-4.91;100.00
2785;BME280;57944;48.722;9.316;2023-02-26T06:45:27;97803.84;;;-4.73;100.00
2785;BME280;57944;48.722;9.316;2023-02-26T06:47:57;97807.13;;;-4.73;100.00
2785;BME280;57944;48.722;9.316;2023-02-26T06:50:27;97816.38;;;-4.62;100.00
2785;BME280;57944;48.722;9.316;2023-02-26T06:53:00;97821.00;;;-4.44;100.00
2785;BME280;57944;48.722;9.316;2023-02-26T06:55:30;97821.88;;;-4.33;100.00
2785;BME280;57944;48.722;9.316;2023-02-26T06:58:00;97823.66;;;-4.22;100.00
2785;BME280;57944;48.722;9.316;2023-02-26T07:00:29;97830.53;;;-3.89;100.00
2785;BME280;57944;48.722;9.316;2023-02-26T07:03:00;97835.63;;;-3.66;100.00
2785;BME280;57944;48.722;9.316;2023-02-26T07:05:30;97849.63;;;-3.28;100.00
2785;BME280;57944;48.722;9.316;2023-02-26T07:08:03;97834.50;;;-3.03;100.00
2785;BME280;57944;48.722;9.316;2023-02-26T07:10:35;97838.59;;;-2.90;100.00
2785;BME280;57944;48.722;9.316;2023-02-26T07:13:05;97839.28;;;-3.00;100.00
2785;BME280;57944;48.722;9.316;2023-02-26T07:15:35;97837.59;;;-2.88;100.00
2785;BME280;57944;48.722;9.316;2023-02-26T07:18:05;97842.03;;;-2.69;100.00
2785;BME280;57944;48.722;9.316;2023-02-26T07:20:35;97841.38;;;-2.60;100.00
2785;BME280;57944;48.722;9.316;2023-02-26T07:23:08;97843.88;;;-2.49;100.00
2785;BME280;57944;48.722;9.316;2023-02-26T07:25:38;97843.63;;;-2.45;100.00
2785;BME280;57944;48.722;9.316;2023-02-26T07:28:08;97847.38;;;-2.40;100.00
2785;BME280;57944;48.722;9.316;2023-02-26T07:30:38;97857.25;;;-2.50;100.00
2785;BME280;57944;48.722;9.316;2023-02-26T07:33:09;97852.94;;;-2.59;100.00
2785;BME280;57944;48.722;9.316;2023-02-26T07:35:39;97852.94;;;-2.59;100.00
2785;BME280;57944;48.722;9.316;2023-02-26T07:38:12;97853.38;;;-2.65;100.00
2785;BME280;57944;48.722;9.316;2023-02-26T07:40:45;97857.22;;;-2.72;100.00
2785;BME280;57944;48.722;9.316;2023-02-26T07:43:15;97863.25;;;-2.63;100.00
2785;BME280;57944;48.722;9.316;2023-02-26T07:45:45;97863.38;;;-2.54;100.00
2785;BME280;57944;48.722;9.316;2023-02-26T07:48:15;97865.44;;;-2.25;100.00
2785;BME280;57944;48.722;9.316;2023-02-26T07:50:46;97870.75;;;-2.30;100.00
2785;BME280;57944;48.722;9.316;2023-02-26T07:53:19;97870.88;;;-2.09;100.00
2785;BME280;57944;48.722;9.316;2023-02-26T07:55:49;97867.44;;;-1.96;100.00
2785;BME280;57944;48.722;9.316;2023-02-26T07:58:19;97870.72;;;-1.85;100.00
2785;BME280;57944;48.722;9.316;2023-02-26T08:00:49;97872.81;;;-1.58;100.00
2785;BME280;57944;48.722;9.316;2023-02-26T08:03:20;97868.47;;;-1.44;100.00
2785;BME280;57944;48.722;9.316;2023-02-26T08:05:50;97867.81;;;-1.58;100.00
2785;BME280;57944;48.722;9.316;2023-02-26T08:08:23;97881.72;;;-1.00;100.00
2785;BME280;57944;48.722;9.316;2023-02-26T08:10:53;97879.03;;;-0.36;100.00
2785;BME280;57944;48.722;9.316;2023-02-26T08:13:23;97880.94;;;-0.18;100.00
2785;BME280;57944;48.722;9.316;2023-02-26T08:15:53;97882.25;;;-0.24;100.00
2785;BME280;57944;48.722;9.316;2023-02-26T08:18:23;97886.22;;;-0.73;100.00
2785;BME280;57944;48.722;9.316;2023-02-26T08:20:53;97877.22;;;-0.76;100.00
2785;BME280;57944;48.722;9.316;2023-02-26T08:23:25;97876.69;;;-0.58;100.00
2785;BME280;57944;48.722;9.316;2023-02-26T08:26:00;97884.53;;;-0.42;100.00
2785;BME280;57944;48.722;9.316;2023-02-26T08:28:30;97884.38;;;-0.71;100.00
2785;BME280;57944;48.722;9.316;2023-02-26T08:31:01;97877.56;;;-0.69;100.00
2785;BME280;57944;48.722;9.316;2023-02-26T08:33:32;97877.22;;;-0.76;100.00
2785;BME280;57944;48.722;9.316;2023-02-26T08:36:03;97894.56;;;-0.84;100.00
2785;BME280;57944;48.722;9.316;2023-02-26T08:38:36;97889.06;;;-1.20;100.00
2785;BME280;57944;48.722;9.316;2023-02-26T08:41:06;97895.09;;;-1.22;100.00
2785;BME280;57944;48.722;9.316;2023-02-26T08:43:36;97903.84;;;-1.17;100.00
2785;BME280;57944;48.722;9.316;2023-02-26T08:46:06;97902.31;;;-1.08;100.00
2785;BME280;57944;48.722;9.316;2023-02-26T08:48:36;97911.56;;;-1.20;100.00
2785;BME280;57944;48.722;9.316;2023-02-26T08:51:05;97911.44;;;-1.18;100.00
2785;BME280;57944;48.722;9.316;2023-02-26T08:53:39;97912.88;;;-1.04;100.00
2785;BME280;57944;48.722;9.316;2023-02-26T08:56:11;97909.88;;;-1.19;100.00
2785;BME280;57944;48.722;9.316;2023-02-26T08:58:42;97911.63;;;-1.42;100.00
2785;BME280;57944;48.722;9.316;2023-02-26T09:01:12;97916.91;;;-1.24;100.00
2785;BME280;57944;48.722;9.316;2023-02-26T09:03:42;97912.94;;;-1.27;100.00
2785;BME280;57944;48.722;9.316;2023-02-26T09:06:13;97925.66;;;-1.19;100.00
2785;BME280;57944;48.722;9.316;2023-02-26T09:08:46;97918.19;;;-1.30;100.00
2785;BME280;57944;48.722;9.316;2023-02-26T09:11:16;97925.88;;;-1.22;100.00
2785;BME280;57944;48.722;9.316;2023-02-26T09:13:46;97919.13;;;-1.42;100.00
2785;BME280;57944;48.722;9.316;2023-02-26T09:16:16;97916.13;;;-1.25;100.00
2785;BME280;57944;48.722;9.316;2023-02-26T09:18:46;97925.66;;;-1.19;100.00
2785;BME280;57944;48.722;9.316;2023-02-26T09:21:16;97932.22;;;-1.18;100.00
2785;BME280;57944;48.722;9.316;2023-02-26T09:23:49;97941.56;;;-1.20;100.00
2785;BME280;57944;48.722;9.316;2023-02-26T09:26:19;97936.09;;;-1.14;100.00
2785;BME280;57944;48.722;9.316;2023-02-26T09:28:49;97942.91;;;-1.16;100.00
2785;BME280;57944;48.722;9.316;2023-02-26T09:31:19;97937.16;;;-0.95;100.00
2785;BME280;57944;48.722;9.316;2023-02-26T09:33:49;97944.41;;;-0.92;100.00
2785;BME280;57944;48.722;9.316;2023-02-26T09:36:19;97943.41;;;-1.01;100.00
2785;BME280;57944;48.722;9.316;2023-02-26T09:38:52;97957.00;;;-0.82;100.00
2785;BME280;57944;48.722;9.316;2023-02-26T09:41:29;97954.44;;;-0.71;100.00
2785;BME280;57944;48.722;9.316;2023-02-26T09:44:12;97965.94;;;-0.69;100.00
2785;BME280;57944;48.722;9.316;2023-02-26T09:46:52;97965.00;;;-0.68;100.00
2785;BME280;57944;48.722;9.316;2023-02-26T09:49:36;97969.09;;;-0.66;100.00
2785;BME280;57944;48.722;9.316;2023-02-26T09:52:18;97957.06;;;-0.73;100.00
2785;BME280;57944;48.722;9.316;2023-02-26T09:54:58;97967.59;;;-0.58;100.00
2785;BME280;57944;48.722;9.316;2023-02-26T09:57:33;97970.72;;;-0.44;100.00
2785;BME280;57944;48.722;9.316;2023-02-26T10:00:17;97962.56;;;-0.37;100.00
2785;BME280;57944;48.722;9.316;2023-02-26T10:02:59;97971.03;;;-0.28;100.00
2785;BME280;57944;48.722;9.316;2023-02-26T10:05:41;97973.44;;;-0.27;100.00
2785;BME280;57944;48.722;9.316;2023-02-26T10:08:17;97976.69;;;-0.36;100.00
2785;BME280;57944;48.722;9.316;2023-02-26T10:11:02;97981.69;;;-0.57;100.00
2785;BME280;57944;48.722;9.316;2023-02-26T10:13:46;97980.69;;;-0.65;100.00
2785;BME280;57944;48.722;9.316;2023-02-26T10:16:29;97976.91;;;-0.92;100.00
2785;BME280;57944;48.722;9.316;2023-02-26T10:19:07;97978.84;;;-0.84;100.00
2785;BME280;57944;48.722;9.316;2023-02-26T10:21:45;97982.16;;;-0.95;100.00
2785;BME280;57944;48.722;9.316;2023-02-26T10:24:23;97984.41;;;-1.13;100.00
2785;BME280;57944;48.722;9.316;2023-02-26T10:27:04;97986.63;;;-0.99;100.00
2785;BME280;57944;48.722;9.316;2023-02-26T10:29:43;97987.56;;;-1.11;100.00
2785;BME280;57944;48.722;9.316;2023-02-26T10:32:24;97991.75;;;-1.12;100.00
2785;BME280;57944;48.722;9.316;2023-02-26T10:35:00;97991.34;;;-1.17;100.00
2785;BME280;57944;48.722;9.316;2023-02-26T10:37:43;97986.19;;;-1.04;100.00
2785;BME280;57944;48.722;9.316;2023-02-26T10:40:22;97992.03;;;-0.82;100.00
2785;BME280;57944;48.722;9.316;2023-02-26T10:42:59;97987.03;;;-0.61;100.00
2785;BME280;57944;48.722;9.316;2023-02-26T10:45:55;97993.94;;;-0.75;100.00
2785;BME280;57944;48.722;9.316;2023-02-26T10:48:50;97992.00;;;-0.50;100.00
2785;BME280;57944;48.722;9.316;2023-02-26T10:51:27;97991.56;;;-0.34;100.00
2785;BME280;57944;48.722;9.316;2023-02-26T10:54:03;97995.91;;;-0.15;100.00
2785;BME280;57944;48.722;9.316;2023-02-26T10:56:35;97990.31;;;0.02;100.00
2785;BME280;57944;48.722;9.316;2023-02-26T10:59:07;97988.06;;;-0.01;100.00
2785;BME280;57944;48.722;9.316;2023-02-26T11:01:38;97995.25;;;0.13;100.00
2785;BME280;57944;48.722;9.316;2023-02-26T11:04:12;97994.44;;;0.03;100.00
2785;BME280;57944;48.722;9.316;2023-02-26T11:06:48;97993.94;;;0.09;100.00
2785;BME280;57944;48.722;9.316;2023-02-26T11:09:26;97987.09;;;0.21;100.00
2785;BME280;57944;48.722;9.316;2023-02-26T11:12:04;97983.94;;;0.19;100.00
2785;BME280;57944;48.722;9.316;2023-02-26T11:14:38;97987.44;;;0.47;100.00
2785;BME280;57944;48.722;9.316;2023-02-26T11:17:13;97985.53;;;0.20;100.00
2785;BME280;57944;48.722;9.316;2023-02-26T11:19:52;97995.91;;;0.15;100.00
2785;BME280;57944;48.722;9.316;2023-02-26T11:22:28;97995.38;;;0.42;100.00
2785;BME280;57944;48.722;9.316;2023-02-26T11:25:00;97991.81;;;0.45;100.00
2785;BME280;57944;48.722;9.316;2023-02-26T11:27:36;97998.34;;;0.77;100.00
2785;BME280;57944;48.722;9.316;2023-02-26T11:30:19;97998.66;;;0.93;100.00
2785;BME280;57944;48.722;9.316;2023-02-26T11:32:52;97996.22;;;0.72;100.00
2785;BME280;57944;48.722;9.316;2023-02-26T11:35:26;97996.22;;;0.72;100.00
2785;BME280;57944;48.722;9.316;2023-02-26T11:37:59;97988.06;;;0.80;100.00
2785;BME280;57944;48.722;9.316;2023-02-26T11:40:37;97996.13;;;0.33;100.00
2785;BME280;57944;48.722;9.316;2023-02-26T11:43:14;97998.31;;;0.57;100.00
2785;BME280;57944;48.722;9.316;2023-02-26T11:45:53;97997.00;;;0.53;100.00
2785;BME280;57944;48.722;9.316;2023-02-26T11:48:35;97987.22;;;0.60;100.00
2785;BME280;57944;48.722;9.316;2023-02-26T11:51:12;97996.19;;;0.53;100.00
2785;BME280;57944;48.722;9.316;2023-02-26T11:53:49;97980.91;;;0.56;100.00
2785;BME280;57944;48.722;9.316;2023-02-26T11:56:26;97984.72;;;0.19;100.00
2785;BME280;57944;48.722;9.316;2023-02-26T11:59:12;97988.44;;;0.25;100.00
2785;BME280;57944;48.722;9.316;2023-02-26T12:01:49;97987.19;;;0.50;100.00
2785;BME280;57944;48.722;9.316;2023-02-26T12:04:23;97988.69;;;0.22;100.00
2785;BME280;57944;48.722;9.316;2023-02-26T12:06:55;97986.81;;;0.14;100.00
2785;BME280;57944;48.722;9.316;2023-02-26T12:09:25;98005.34;;;0.02;100.00
2785;BME280;57944;48.722;9.316;2023-02-26T12:12:33;97997.00;;;-0.08;100.00
2785;BME280;57944;48.722;9.316;2023-02-26T12:15:22;98000.16;;;0.55;100.00
2785;BME280;57944;48.722;9.316;2023-02-26T12:18:39;98007.13;;;1.21;100.00
2785;BME280;57944;48.722;9.316;2023-02-26T12:21:28;97992.84;;;1.02;100.00
2785;BME280;57944;48.722;9.316;2023-02-26T12:27:25;97994.91;;;0.28;100.00
2785;BME280;57944;48.722;9.316;2023-02-26T12:30:24;98003.59;;;0.54;100.00
2785;BME280;57944;48.722;9.316;2023-02-26T12:33:18;97997.41;;;0.28;100.00
2785;BME280;57944;48.722;9.316;2023-02-26T12:36:05;98004.88;;;0.49;100.00
2785;BME280;57944;48.722;9.316;2023-02-26T12:38:48;97995.44;;;0.62;100.00
2785;BME280;57944;48.722;9.316;2023-02-26T12:41:51;98001.00;;;0.85;100.00
2785;BME280;57944;48.722;9.316;2023-02-26T12:44:55;97995.47;;;0.81;100.00
2785;BME280;57944;48.722;9.316;2023-02-26T12:47:48;98001.44;;;1.09;100.00
2785;BME280;57944;48.722;9.316;2023-02-26T12:50:46;97998.38;;;1.25;100.00
2785;BME280;57944;48.722;9.316;2023-02-26T12:54:02;98008.56;;;1.63;98.97
2785;BME280;57944;48.722;9.316;2023-02-26T12:57:06;98006.88;;;1.53;98.52
2785;BME280;57944;48.722;9.316;2023-02-26T13:00:21;97999.69;;;1.68;98.20
2785;BME280;57944;48.722;9.316;2023-02-26T13:03:40;98001.25;;;1.79;94.98
2785;BME280;57944;48.722;9.316;2023-02-26T13:09:31;98017.28;;;1.20;100.00
2785;BME280;57944;48.722;9.316;2023-02-26T13:12:16;98012.41;;;1.18;100.00
2785;BME280;57944;48.722;9.316;2023-02-26T13:15:00;98007.63;;;0.96;99.42
2785;BME280;57944;48.722;9.316;2023-02-26T13:17:42;98012.50;;;0.87;100.00
2785;BME280;57944;48.722;9.316;2023-02-26T13:20:20;98010.25;;;0.94;100.00
2785;BME280;57944;48.722;9.316;2023-02-26T13:23:00;98001.28;;;0.82;100.00
2785;BME280;57944;48.722;9.316;2023-02-26T13:25:38;98007.13;;;0.92;100.00
2785;BME280;57944;48.722;9.316;2023-02-26T13:28:24;98015.94;;;0.86;100.00
2785;BME280;57944;48.722;9.316;2023-02-26T13:31:00;98003.81;;;1.21;100.00
2785;BME280;57944;48.722;9.316;2023-02-26T13:33:34;98012.16;;;1.31;96.65
2785;BME280;57944;48.722;9.316;2023-02-26T13:36:07;98005.41;;;1.51;95.09
2785;BME280;57944;48.722;9.316;2023-02-26T13:38:54;98007.22;;;1.59;92.98
2785;BME280;57944;48.722;9.316;2023-02-26T13:41:42;98006.19;;;1.32;92.08
2785;BME280;57944;48.722;9.316;2023-02-26T13:44:29;98004.72;;;1.00;95.37
2785;BME280;57944;48.722;9.316;2023-02-26T13:50:29;98011.88;;;1.15;94.43
2785;BME280;57944;48.722;9.316;2023-02-26T13:53:03;98019.00;;;1.09;90.91
2785;BME280;57944;48.722;9.316;2023-02-26T13:55:43;98026.69;;;1.18;91.10
2785;BME280;57944;48.722;9.316;2023-02-26T13:58:35;98029.66;;;1.89;82.51
2785;BME280;57944;48.722;9.316;2023-02-26T14:01:14;98013.13;;;1.96;83.95
2785;BME280;57944;48.722;9.316;2023-02-26T14:03:49;98016.41;;;2.07;81.96
2785;BME280;57944;48.722;9.316;2023-02-26T14:06:40;98036.94;;;1.92;73.26